Time;durP1;ratioP1;P1;durP2;ratioP2;P2;SDS_P1;SDS_P2;PMS_P1;PMS_P2;Temp;Humidity;BMP_temperature;BMP_pressure;BME280_temperature;BME280_humidity;BME280_pressure;Samples;Min_cycle;Max_cycle;Signal;HPM_P1;HPM_P2
2024/01/17 00:00:04;;;;;;;9.90;4.10;;;-0.80;99.90;;;;;;5037043;28;20235;-78
2024/01/17 00:02:31;;;;;;;13.53;4.67;;;-1.00;99.90;;;;;;5035583;28;20223;-78
2024/01/17 00:04:57;;;;;;;11.17;4.77;;;-1.00;99.90;;;;;;5036821;28;20223;-78
2024/01/17 00:07:25;;;;;;;10.50;4.73;;;-1.00;99.90;;;;;;5036485;28;20446;-78
2024/01/17 00:09:52;;;;;;;8.17;4.23;;;-1.10;99.90;;;;;;5036867;28;20208;-78
2024/01/17 00:12:19;;;;;;;10.23;4.40;;;-1.10;1.00;;;;;;5035463;28;20207;-78
2024/01/17 00:14:46;;;;;;;12.20;4.63;;;-1.10;99.90;;;;;;5042780;28;20690;-78
2024/01/17 00:17:13;;;;;;;7.57;4.37;;;-1.20;99.90;;;;;;5036584;28;20219;-78
2024/01/17 00:19:40;;;;;;;10.67;4.27;;;-1.10;99.90;;;;;;5035558;28;20231;-78
2024/01/17 00:22:07;;;;;;;11.30;4.33;;;-1.10;99.90;;;;;;5037332;28;20210;-78
2024/01/17 00:24:35;;;;;;;7.80;3.90;;;-1.30;99.90;;;;;;5040419;28;20215;-78
2024/01/17 00:27:03;;;;;;;7.37;3.93;;;-1.40;99.90;;;;;;5041226;28;20203;-79
2024/01/17 00:29:30;;;;;;;10.10;4.67;;;-1.50;99.90;;;;;;5036359;28;20212;-78
2024/01/17 00:31:57;;;;;;;11.70;4.57;;;-1.50;1.00;;;;;;5036598;28;20210;-78
2024/01/17 00:34:23;;;;;;;9.13;4.03;;;-1.50;1.00;;;;;;5036274;28;20226;-78
2024/01/17 00:36:50;;;;;;;7.33;3.60;;;-1.40;1.00;;;;;;5041680;28;20213;-78
2024/01/17 00:39:18;;;;;;;9.03;4.23;;;-1.30;99.90;;;;;;5038585;28;20210;-79
2024/01/17 00:41:46;;;;;;;9.10;3.90;;;-1.20;99.90;;;;;;5029515;28;20207;-78
2024/01/17 00:44:16;;;;;;;7.80;3.90;;;-1.10;99.90;;;;;;5036498;28;20239;-78
2024/01/17 00:46:43;;;;;;;7.17;4.00;;;-1.10;99.90;;;;;;5033547;28;20262;-78
2024/01/17 00:49:10;;;;;;;9.20;3.80;;;-1.10;99.90;;;;;;5036488;28;20242;-78
2024/01/17 00:51:37;;;;;;;9.77;3.97;;;-1.20;99.90;;;;;;5034930;28;20226;-78
2024/01/17 00:54:04;;;;;;;8.67;3.87;;;-1.20;99.90;;;;;;5048264;28;20241;-78
2024/01/17 00:56:32;;;;;;;8.00;4.43;;;-1.30;99.90;;;;;;5040307;28;20196;-78
2024/01/17 00:59:00;;;;;;;10.63;4.33;;;-1.20;99.90;;;;;;5046632;28;20211;-78
2024/01/17 01:01:27;;;;;;;9.27;4.10;;;-1.20;99.90;;;;;;5036397;28;20211;-78
2024/01/17 01:03:53;;;;;;;9.67;4.03;;;-1.30;99.90;;;;;;5036290;28;20222;-78
2024/01/17 01:06:20;;;;;;;8.00;3.70;;;-1.20;99.90;;;;;;5035120;28;20543;-78
2024/01/17 01:08:47;;;;;;;9.03;3.70;;;-1.20;99.90;;;;;;5033752;28;20558;-78
2024/01/17 01:11:14;;;;;;;12.43;3.83;;;-1.10;99.90;;;;;;5042842;28;20206;-78
2024/01/17 01:13:40;;;;;;;7.43;3.97;;;-1.10;99.90;;;;;;5042319;28;20196;-78
2024/01/17 01:16:10;;;;;;;7.63;4.07;;;-1.10;99.90;;;;;;5035927;28;20214;-78
2024/01/17 01:18:37;;;;;;;9.10;4.00;;;-1.00;99.90;;;;;;5046825;28;20199;-78
2024/01/17 01:21:04;;;;;;;7.00;3.87;;;-1.00;99.90;;;;;;5045533;28;20195;-78
2024/01/17 01:23:30;;;;;;;7.70;3.80;;;-0.90;99.90;;;;;;5035340;28;20227;-78
2024/01/17 01:25:57;;;;;;;7.03;3.77;;;-0.90;99.90;;;;;;5035483;28;20219;-78
2024/01/17 01:28:24;;;;;;;6.40;3.83;;;-0.90;99.90;;;;;;5035385;28;20207;-78
2024/01/17 01:30:51;;;;;;;7.73;3.90;;;-1.00;99.90;;;;;;5043170;28;20196;-78
2024/01/17 01:33:19;;;;;;;8.43;3.87;;;-1.00;99.90;;;;;;5028554;28;20230;-78
2024/01/17 01:35:46;;;;;;;6.40;3.57;;;-0.90;99.90;;;;;;5035217;28;20222;-78
2024/01/17 01:38:12;;;;;;;7.83;3.57;;;-1.00;99.90;;;;;;5043535;28;20199;-78
2024/01/17 01:40:40;;;;;;;9.90;4.90;;;-1.00;99.90;;;;;;5035388;28;20204;-79
2024/01/17 01:43:22;;;;;;;6.17;3.20;;;-1.00;99.90;;;;;;5040312;28;20220;-78
2024/01/17 01:46:10;;;;;;;7.30;3.87;;;-0.90;99.90;;;;;;5032858;28;20224;-78
2024/01/17 01:48:38;;;;;;;7.03;3.90;;;-1.00;99.90;;;;;;5038029;28;20261;-78
2024/01/17 01:51:05;;;;;;;12.17;4.20;;;-1.10;99.90;;;;;;5032998;28;20220;-78
2024/01/17 01:53:34;;;;;;;9.00;4.17;;;-1.20;99.90;;;;;;5043717;28;20272;-78
2024/01/17 01:56:02;;;;;;;7.93;3.87;;;-1.20;99.90;;;;;;5029190;28;20235;-78
2024/01/17 01:58:30;;;;;;;8.33;4.03;;;-1.20;99.90;;;;;;5033301;28;20734;-78
2024/01/17 02:00:57;;;;;;;7.37;4.57;;;-1.30;99.90;;;;;;5036120;28;20204;-78
2024/01/17 02:03:24;;;;;;;10.10;3.50;;;-1.30;99.90;;;;;;5034865;28;20220;-78
2024/01/17 02:05:54;;;;;;;9.63;4.13;;;-1.20;99.90;;;;;;5039625;28;20219;-78
2024/01/17 02:08:21;;;;;;;10.27;3.70;;;-1.20;99.90;;;;;;5035144;28;20200;-78
2024/01/17 02:10:47;;;;;;;6.50;3.80;;;-1.40;99.90;;;;;;5030793;28;20191;-78
2024/01/17 02:13:15;;;;;;;6.77;3.73;;;-1.30;99.90;;;;;;5045635;28;20548;-78
2024/01/17 02:15:42;;;;;;;10.27;4.20;;;-1.40;99.90;;;;;;5035064;28;20250;-78
2024/01/17 02:18:08;;;;;;;4.60;3.20;;;-1.40;99.90;;;;;;5041525;28;20562;-78
2024/01/17 02:20:35;;;;;;;5.33;3.10;;;-1.40;99.90;;;;;;5034664;28;20208;-78
2024/01/17 02:23:22;;;;;;;9.77;3.50;;;-1.50;99.90;;;;;;5034800;28;20271;-77
2024/01/17 02:25:51;;;;;;;8.40;3.57;;;-1.50;99.90;;;;;;5042378;28;20223;-77
2024/01/17 02:28:18;;;;;;;9.50;3.47;;;-1.60;99.90;;;;;;5035618;28;20544;-78
2024/01/17 02:30:45;;;;;;;8.77;3.03;;;-1.50;99.90;;;;;;5034412;28;20192;-78
2024/01/17 02:33:13;;;;;;;11.87;3.80;;;-1.50;99.90;;;;;;5034758;28;20270;-78
2024/01/17 02:35:39;;;;;;;7.80;3.33;;;-1.50;99.90;;;;;;5034608;28;20747;-78
2024/01/17 02:38:06;;;;;;;6.33;3.20;;;-1.50;99.90;;;;;;5034055;28;20235;-77
2024/01/17 02:40:33;;;;;;;8.30;3.63;;;-1.50;99.90;;;;;;5042401;28;20203;-78
2024/01/17 02:43:01;;;;;;;12.53;3.80;;;-1.50;99.90;;;;;;5034286;28;20591;-78
2024/01/17 02:45:28;;;;;;;10.47;4.03;;;-1.70;99.90;;;;;;5029006;28;20598;-78
2024/01/17 02:47:55;;;;;;;8.47;3.70;;;-1.70;99.90;;;;;;5040086;28;20199;-78
2024/01/17 02:50:22;;;;;;;7.07;3.70;;;-1.60;99.90;;;;;;5043360;28;20202;-78
2024/01/17 02:52:49;;;;;;;8.33;3.67;;;-1.60;99.90;;;;;;5032692;28;20200;-78
2024/01/17 02:55:16;;;;;;;7.50;3.50;;;-1.70;99.90;;;;;;5033771;28;20310;-78
2024/01/17 02:57:44;;;;;;;6.93;3.90;;;-1.70;99.90;;;;;;5033869;28;20212;-78
2024/01/17 03:00:13;;;;;;;6.00;3.37;;;-1.70;99.90;;;;;;5033688;28;20210;-78
2024/01/17 03:02:40;;;;;;;9.87;3.93;;;-1.70;99.90;;;;;;5033696;28;20219;-78
2024/01/17 03:05:08;;;;;;;7.77;3.77;;;-1.70;99.90;;;;;;5034748;28;20223;-78
2024/01/17 03:07:35;;;;;;;7.83;3.67;;;-1.80;99.90;;;;;;5042894;28;20199;-77
2024/01/17 03:10:01;;;;;;;11.47;4.23;;;-1.80;99.90;;;;;;5039708;28;20210;-78
2024/01/17 03:12:28;;;;;;;12.97;4.20;;;-1.80;99.90;;;;;;5045652;28;20219;-78
2024/01/17 03:14:55;;;;;;;8.53;4.10;;;-1.80;99.90;;;;;;5033042;28;20243;-77
2024/01/17 03:17:23;;;;;;;8.13;4.27;;;-1.90;99.90;;;;;;5039849;28;20217;-77
2024/01/17 03:19:50;;;;;;;9.40;4.10;;;-1.70;99.90;;;;;;5034165;28;20200;-77
2024/01/17 03:22:17;;;;;;;14.47;4.40;;;-1.90;99.90;;;;;;5033109;28;20200;-78
2024/01/17 03:24:45;;;;;;;8.47;4.20;;;-2.00;99.90;;;;;;5044877;28;20435;-78
2024/01/17 03:27:13;;;;;;;12.23;4.33;;;-2.00;99.90;;;;;;5044851;28;20227;-78
2024/01/17 03:29:39;;;;;;;10.33;4.00;;;-1.90;99.90;;;;;;5034381;28;20196;-78
2024/01/17 03:32:07;;;;;;;8.27;4.30;;;-1.90;99.90;;;;;;5034235;28;20200;-78
2024/01/17 03:34:35;;;;;;;9.83;3.83;;;-1.90;99.90;;;;;;5033705;28;20215;-78
2024/01/17 03:37:02;;;;;;;8.80;4.63;;;-1.80;99.90;;;;;;5033014;28;20199;-78
2024/01/17 03:39:30;;;;;;;9.77;4.17;;;-1.70;99.90;;;;;;5033703;28;20210;-77
2024/01/17 03:41:57;;;;;;;10.97;4.50;;;-1.80;99.90;;;;;;5034773;28;20554;-77
2024/01/17 03:44:24;;;;;;;9.10;4.10;;;-1.80;99.90;;;;;;5035489;28;20686;-78
2024/01/17 03:46:51;;;;;;;10.23;4.60;;;-1.80;99.90;;;;;;5035220;28;20693;-78
2024/01/17 03:49:18;;;;;;;10.10;5.03;;;-1.90;99.90;;;;;;5042328;28;20203;-78
2024/01/17 03:51:46;;;;;;;12.20;5.17;;;-2.00;1.00;;;;;;5036789;28;20658;-78
2024/01/17 03:54:12;;;;;;;11.93;5.80;;;-2.00;1.00;;;;;;5035207;28;20701;-78
2024/01/17 03:56:39;;;;;;;12.73;5.80;;;-1.90;1.00;;;;;;5047932;28;20203;-78
2024/01/17 03:59:06;;;;;;;13.33;5.87;;;-1.90;1.00;;;;;;5034802;28;20207;-77
2024/01/17 04:01:33;;;;;;;14.43;6.10;;;-2.00;1.00;;;;;;5037814;28;20203;-78
2024/01/17 04:04:00;;;;;;;12.13;5.07;;;-2.00;1.00;;;;;;5037984;28;20676;-78
2024/01/17 04:06:28;;;;;;;12.10;5.47;;;-2.00;1.00;;;;;;5039832;28;20668;-78
2024/01/17 04:08:57;;;;;;;12.70;5.53;;;-2.20;1.00;;;;;;5027519;28;20299;-78
2024/01/17 04:11:24;;;;;;;14.00;5.80;;;-2.20;1.00;;;;;;5039374;28;20199;-80
2024/01/17 04:13:51;;;;;;;10.37;5.23;;;-2.20;1.00;;;;;;5042905;28;20285;-79
2024/01/17 04:16:18;;;;;;;12.27;5.80;;;-2.20;1.00;;;;;;5037176;28;20262;-79
2024/01/17 04:18:45;;;;;;;11.07;6.00;;;-2.30;1.00;;;;;;5039640;28;20196;-79
2024/01/17 04:21:18;;;;;;;11.03;5.50;;;-2.20;1.00;;;;;;5034376;28;20208;-79
2024/01/17 04:23:45;;;;;;;21.00;7.93;;;-2.30;1.00;;;;;;5035182;28;20211;-79
2024/01/17 04:26:23;;;;;;;14.60;6.37;;;-2.20;1.00;;;;;;5041472;28;20242;-79
2024/01/17 04:28:50;;;;;;;14.57;6.73;;;-2.30;1.00;;;;;;5049315;28;20207;-79
2024/01/17 04:31:24;;;;;;;15.00;6.93;;;-2.40;1.00;;;;;;5035174;28;20208;-80
2024/01/17 04:33:51;;;;;;;16.03;6.97;;;-2.30;1.00;;;;;;5035326;28;20199;-78
2024/01/17 04:36:18;;;;;;;14.07;6.63;;;-2.30;1.00;;;;;;5035281;28;20204;-78
2024/01/17 04:38:45;;;;;;;15.47;7.70;;;-2.40;1.00;;;;;;5036170;28;20200;-79
2024/01/17 04:41:12;;;;;;;16.50;7.17;;;-2.30;1.00;;;;;;5040882;28;20199;-78
2024/01/17 04:43:41;;;;;;;14.63;7.70;;;-2.20;1.00;;;;;;5045597;28;20666;-78
2024/01/17 04:46:09;;;;;;;13.13;7.00;;;-2.20;1.00;;;;;;5038665;28;20290;-78
2024/01/17 04:48:36;;;;;;;15.30;7.33;;;-2.20;1.00;;;;;;5037846;28;20243;-79
2024/01/17 04:51:04;;;;;;;15.83;7.63;;;-2.20;1.00;;;;;;5038402;28;20229;-78
2024/01/17 04:53:31;;;;;;;16.63;6.90;;;-2.20;1.00;;;;;;5037917;28;20218;-79
2024/01/17 04:55:58;;;;;;;16.67;8.17;;;-2.20;1.00;;;;;;5038123;28;20223;-80
2024/01/17 04:58:25;;;;;;;16.80;7.90;;;-2.20;1.00;;;;;;5037212;28;20302;-78
2024/01/17 05:00:53;;;;;;;12.80;6.63;;;-2.20;1.00;;;;;;5044419;28;20567;-79
2024/01/17 05:03:20;;;;;;;15.77;7.23;;;-2.20;1.00;;;;;;5038157;28;20291;-79
2024/01/17 05:05:46;;;;;;;17.63;8.63;;;-2.30;1.00;;;;;;5037730;28;20227;-78
2024/01/17 05:08:13;;;;;;;16.37;6.93;;;-2.40;1.00;;;;;;5037493;28;20658;-78
2024/01/17 05:10:43;;;;;;;14.57;7.33;;;-2.30;78.30;;;;;;5037835;28;20629;-80
2024/01/17 05:13:10;;;;;;;16.03;7.47;;;-2.20;10.80;;;;;;5037946;28;20207;-80
2024/01/17 05:15:37;;;;;;;16.37;7.20;;;-2.30;1.00;;;;;;5037870;28;20237;-78
2024/01/17 05:18:06;;;;;;;15.83;7.03;;;-2.30;1.00;;;;;;5037858;28;20207;-78
2024/01/17 05:20:33;;;;;;;17.00;7.20;;;-2.40;21.60;;;;;;5037815;28;20203;-79
2024/01/17 05:23:00;;;;;;;18.17;7.63;;;-2.40;99.90;;;;;;5037558;28;20204;-78
2024/01/17 05:25:27;;;;;;;19.27;8.10;;;-2.40;99.90;;;;;;5037396;28;20231;-79
2024/01/17 05:27:53;;;;;;;15.67;6.87;;;-2.20;41.70;;;;;;5040084;28;20196;-78
2024/01/17 05:30:21;;;;;;;15.03;6.43;;;-2.20;1.00;;;;;;5058026;28;20198;-78
2024/01/17 05:32:48;;;;;;;17.30;7.50;;;-2.20;1.00;;;;;;5057928;28;20207;-78
2024/01/17 05:35:17;;;;;;;15.17;7.73;;;-2.20;1.00;;;;;;5058126;28;20222;-79
2024/01/17 05:37:44;;;;;;;17.87;6.90;;;-1.90;1.00;;;;;;5057539;28;20297;-78
2024/01/17 05:40:12;;;;;;;17.70;7.37;;;-2.20;1.00;;;;;;5057646;28;20463;-80
2024/01/17 05:42:39;;;;;;;14.43;7.47;;;-2.10;1.00;;;;;;5057842;28;20242;-78
2024/01/17 05:45:07;;;;;;;12.60;6.40;;;-2.20;1.00;;;;;;5057851;28;20226;-78
2024/01/17 05:47:35;;;;;;;17.13;6.77;;;-1.30;1.00;;;;;;5057135;28;20231;-78
2024/01/17 05:50:02;;;;;;;16.70;7.40;;;-2.20;1.00;;;;;;5058202;28;20199;-78
2024/01/17 05:52:30;;;;;;;17.30;7.80;;;-2.20;1.00;;;;;;5050912;28;20199;-80
2024/01/17 05:54:57;;;;;;;13.70;6.33;;;-2.30;1.00;;;;;;5037511;28;20246;-79
2024/01/17 05:57:24;;;;;;;13.83;6.77;;;-2.40;1.00;;;;;;5037579;28;20199;-79
2024/01/17 05:59:51;;;;;;;14.23;6.80;;;-2.40;1.00;;;;;;5037262;28;20238;-78
2024/01/17 06:02:17;;;;;;;17.00;7.50;;;-2.30;1.00;;;;;;5050515;28;20672;-78
2024/01/17 06:04:44;;;;;;;16.20;6.03;;;-2.50;1.00;;;;;;5038875;28;20215;-79
2024/01/17 06:07:11;;;;;;;14.70;7.80;;;-2.30;55.20;;;;;;5036665;28;20214;-79
2024/01/17 06:09:39;;;;;;;15.27;6.67;;;-2.20;1.00;;;;;;5036560;28;20544;-78
2024/01/17 06:12:06;;;;;;;18.97;6.97;;;-2.30;1.00;;;;;;5036856;28;20206;-79
2024/01/17 06:14:33;;;;;;;14.43;7.00;;;-2.20;1.00;;;;;;5037373;28;20270;-78
2024/01/17 06:17:00;;;;;;;13.63;6.60;;;-2.40;1.00;;;;;;5036618;28;20590;-78
2024/01/17 06:19:27;;;;;;;16.23;6.77;;;-2.30;1.00;;;;;;5036556;28;20674;-78
2024/01/17 06:21:53;;;;;;;13.93;6.80;;;-2.30;1.00;;;;;;5036546;28;20757;-78
2024/01/17 06:24:20;;;;;;;13.37;6.70;;;-2.30;1.00;;;;;;5036755;28;20585;-79
2024/01/17 06:26:48;;;;;;;17.60;7.10;;;-2.30;1.00;;;;;;5037097;28;20692;-79
2024/01/17 06:29:15;;;;;;;15.90;7.60;;;-2.30;1.00;;;;;;5036747;28;20199;-79
2024/01/17 06:31:42;;;;;;;17.43;7.83;;;-2.20;1.00;;;;;;5036634;28;20199;-79
2024/01/17 06:34:08;;;;;;;15.17;7.27;;;-2.10;1.00;;;;;;5036243;28;20223;-79
2024/01/17 06:36:35;;;;;;;19.77;7.27;;;-2.20;1.00;;;;;;5036558;28;20681;-78
2024/01/17 06:39:02;;;;;;;14.67;7.00;;;-2.00;1.00;;;;;;5036540;28;20206;-78
2024/01/17 06:41:29;;;;;;;14.27;7.27;;;-2.00;1.00;;;;;;5036433;28;20239;-78
2024/01/17 06:43:57;;;;;;;16.50;7.27;;;-2.00;1.00;;;;;;5036306;28;20203;-79
2024/01/17 06:46:24;;;;;;;14.57;7.00;;;-2.20;1.00;;;;;;5036277;28;20200;-79
2024/01/17 06:48:51;;;;;;;15.43;6.90;;;-2.20;1.00;;;;;;5035827;28;20216;-79
2024/01/17 06:51:18;;;;;;;16.10;7.03;;;-2.20;1.00;;;;;;5035905;28;20200;-78
2024/01/17 06:53:45;;;;;;;16.90;7.23;;;-2.20;25.70;;;;;;5035696;28;20207;-79
2024/01/17 06:56:11;;;;;;;16.17;7.23;;;-2.20;86.50;;;;;;5035456;28;20227;-79
2024/01/17 06:58:38;;;;;;;16.83;7.40;;;-2.20;99.90;;;;;;5035267;28;20199;-79
2024/01/17 07:01:06;;;;;;;13.80;6.77;;;-2.20;99.90;;;;;;5046530;28;20194;-78
2024/01/17 07:03:33;;;;;;;16.70;7.40;;;-2.10;22.20;;;;;;5055861;28;20209;-80
2024/01/17 07:06:00;;;;;;;14.23;6.80;;;-2.00;1.00;;;;;;5054869;28;20590;-78
2024/01/17 07:08:26;;;;;;;17.37;7.03;;;-2.00;1.00;;;;;;5041772;28;20666;-78
2024/01/17 07:10:53;;;;;;;17.03;6.90;;;-1.90;1.00;;;;;;5035332;28;20206;-78
2024/01/17 07:13:20;;;;;;;14.73;6.17;;;-1.90;1.00;;;;;;5035902;28;20684;-78
2024/01/17 07:15:47;;;;;;;14.93;6.67;;;-2.00;1.00;;;;;;5043957;28;20221;-78
2024/01/17 07:18:15;;;;;;;15.47;7.37;;;-2.10;1.00;;;;;;5043741;28;20637;-78
2024/01/17 07:20:41;;;;;;;14.97;6.40;;;-2.10;1.00;;;;;;5044027;28;20200;-79
2024/01/17 07:23:10;;;;;;;15.23;6.87;;;-2.10;1.00;;;;;;5036338;28;20192;-79
2024/01/17 07:25:38;;;;;;;13.93;6.53;;;-2.00;1.00;;;;;;5052903;28;20218;-78
2024/01/17 07:28:06;;;;;;;14.80;6.73;;;-1.90;1.00;;;;;;5040199;28;20286;-80
2024/01/17 07:30:32;;;;;;;18.93;6.97;;;-2.00;1.00;;;;;;5033835;28;20298;-79
2024/01/17 07:32:59;;;;;;;13.90;6.30;;;-2.00;1.00;;;;;;5035057;28;20218;-79
2024/01/17 07:35:27;;;;;;;14.20;5.93;;;-2.00;1.00;;;;;;5035157;28;20212;-78
2024/01/17 07:37:55;;;;;;;13.73;6.43;;;-1.90;1.00;;;;;;5044417;28;20205;-79
2024/01/17 07:40:21;;;;;;;13.53;5.73;;;-1.90;1.00;;;;;;5042913;28;20210;-78
2024/01/17 07:42:48;;;;;;;14.30;6.97;;;-2.00;1.00;;;;;;5035067;28;20295;-79
2024/01/17 07:45:15;;;;;;;15.33;6.43;;;-2.00;1.00;;;;;;5034830;28;20238;-77
2024/01/17 07:47:42;;;;;;;17.33;7.23;;;-2.00;1.00;;;;;;5034803;28;20208;-78
2024/01/17 07:50:11;;;;;;;14.67;6.20;;;-2.00;1.00;;;;;;5035731;28;20200;-80
2024/01/17 07:52:40;;;;;;;11.23;6.30;;;-2.00;1.00;;;;;;5035230;28;20207;-79
2024/01/17 07:55:07;;;;;;;16.03;6.47;;;-2.00;1.00;;;;;;5035714;28;20223;-78
2024/01/17 07:57:34;;;;;;;11.73;6.03;;;-2.00;1.00;;;;;;5035392;28;20662;-78
2024/01/17 08:00:01;;;;;;;16.10;6.53;;;-2.00;1.00;;;;;;5035045;28;20654;-78
2024/01/17 08:02:27;;;;;;;13.77;6.83;;;-1.90;1.00;;;;;;5035058;28;20207;-78
2024/01/17 08:04:54;;;;;;;12.90;5.97;;;-1.90;1.00;;;;;;5051752;28;20229;-78
2024/01/17 08:07:24;;;;;;;14.73;6.50;;;-1.80;1.00;;;;;;5054880;28;20203;-78
2024/01/17 08:09:53;;;;;;;14.17;6.27;;;-1.90;1.00;;;;;;5055386;28;20226;-78
2024/01/17 08:12:20;;;;;;;15.77;6.77;;;-1.80;1.00;;;;;;5056191;28;20209;-79
2024/01/17 08:14:46;;;;;;;16.13;6.53;;;-1.80;1.00;;;;;;5055358;28;20219;-79
2024/01/17 08:17:13;;;;;;;13.20;6.17;;;-1.70;1.00;;;;;;5046388;28;20210;-78
2024/01/17 08:19:40;;;;;;;14.00;6.43;;;-1.70;1.00;;;;;;5039610;28;20651;-79
2024/01/17 08:22:07;;;;;;;13.37;5.73;;;-1.60;1.00;;;;;;5041246;28;20210;-79
2024/01/17 08:24:34;;;;;;;14.47;6.93;;;-1.60;1.00;;;;;;5053085;28;20228;-78
2024/01/17 08:27:03;;;;;;;16.83;6.30;;;-1.50;1.00;;;;;;5055163;28;20654;-78
2024/01/17 08:29:29;;;;;;;15.93;7.17;;;-1.60;1.00;;;;;;5038817;28;20215;-79
2024/01/17 08:31:56;;;;;;;15.87;6.73;;;-1.50;1.00;;;;;;5039027;28;20226;-79
2024/01/17 08:34:23;;;;;;;12.27;5.50;;;-1.50;1.00;;;;;;5038608;28;20219;-78
2024/01/17 08:36:50;;;;;;;14.47;6.43;;;-1.50;1.00;;;;;;5038332;28;20199;-79
2024/01/17 08:39:17;;;;;;;15.00;6.17;;;-1.40;1.00;;;;;;5038149;28;20199;-78
2024/01/17 08:41:45;;;;;;;15.87;6.77;;;-1.40;1.00;;;;;;5037807;28;20209;-78
2024/01/17 08:44:13;;;;;;;13.93;6.37;;;-1.30;1.00;;;;;;5037636;28;20285;-79
2024/01/17 08:46:44;;;;;;;13.27;5.87;;;-1.30;1.00;;;;;;5044792;28;20219;-79
2024/01/17 08:49:11;;;;;;;12.47;5.17;;;-1.20;1.00;;;;;;5058867;28;20199;-78
2024/01/17 08:51:38;;;;;;;10.80;5.80;;;-1.20;1.00;;;;;;5057862;28;20199;-78
2024/01/17 08:54:05;;;;;;;11.30;5.57;;;-1.10;1.00;;;;;;5044588;28;20745;-78
2024/01/17 08:56:31;;;;;;;16.00;6.30;;;-1.10;1.00;;;;;;5022256;28;20647;-79
2024/01/17 08:58:58;;;;;;;13.57;6.97;;;-1.00;1.00;;;;;;5038115;28;20199;-79
2024/01/17 09:01:26;;;;;;;12.47;6.33;;;-1.10;1.00;;;;;;5038160;28;20665;-78
2024/01/17 09:03:55;;;;;;;13.87;6.80;;;-1.00;1.00;;;;;;5037888;28;20210;-78
2024/01/17 09:06:22;;;;;;;14.63;6.47;;;-1.00;1.00;;;;;;5038174;28;20376;-79
2024/01/17 09:08:48;;;;;;;16.17;6.63;;;-1.00;1.00;;;;;;5038737;28;20222;-79
2024/01/17 09:11:15;;;;;;;13.10;6.67;;;-1.00;1.00;;;;;;5039291;28;20558;-79
2024/01/17 09:13:42;;;;;;;16.60;6.83;;;-1.00;1.00;;;;;;5031638;28;20572;-78
2024/01/17 09:16:09;;;;;;;15.87;6.57;;;-1.00;1.00;;;;;;5031622;28;20211;-78
2024/01/17 09:18:37;;;;;;;14.30;7.10;;;-0.90;1.00;;;;;;5037221;28;20203;-79
2024/01/17 09:21:04;;;;;;;12.30;6.07;;;-0.80;1.00;;;;;;5046322;28;20200;-79
2024/01/17 09:23:31;;;;;;;14.93;6.63;;;-0.80;1.00;;;;;;5038180;28;20221;-80
2024/01/17 09:25:58;;;;;;;12.17;5.83;;;-0.70;1.00;;;;;;5037436;28;20666;-80
2024/01/17 09:28:24;;;;;;;17.10;6.63;;;-0.70;1.00;;;;;;5036678;28;20649;-78
2024/01/17 09:30:51;;;;;;;14.33;6.83;;;-0.70;1.00;;;;;;5041181;28;20206;-78
2024/01/17 09:33:18;;;;;;;14.27;6.27;;;-0.70;1.00;;;;;;5037845;28;20234;-79
2024/01/17 09:35:48;;;;;;;12.77;6.10;;;-0.70;99.90;;;;;;5041967;28;20241;-78
2024/01/17 09:38:15;;;;;;;14.27;6.03;;;-0.60;99.90;;;;;;5037341;28;20290;-78
2024/01/17 09:40:43;;;;;;;12.37;6.83;;;-0.60;99.90;;;;;;5037192;28;20263;-79
2024/01/17 09:43:10;;;;;;;13.63;6.17;;;-0.60;99.90;;;;;;5042451;28;20211;-78
2024/01/17 09:45:39;;;;;;;12.43;6.17;;;-0.60;99.90;;;;;;5036999;28;20230;-78
2024/01/17 09:48:08;;;;;;;14.90;6.73;;;-0.50;99.90;;;;;;5036974;28;20210;-79
2024/01/17 09:50:34;;;;;;;16.57;6.73;;;-0.40;99.90;;;;;;5036768;28;20200;-80
2024/01/17 09:53:08;;;;;;;12.87;6.60;;;-0.30;99.90;;;;;;5036598;28;20202;-79
2024/01/17 09:55:38;;;;;;;13.97;6.43;;;-0.30;99.90;;;;;;5041446;28;20207;-79
2024/01/17 09:58:06;;;;;;;13.87;6.57;;;-0.20;99.90;;;;;;5044262;28;20662;-79
2024/01/17 10:00:35;;;;;;;14.57;6.77;;;-0.20;99.90;;;;;;5036824;28;20290;-79
2024/01/17 10:03:05;;;;;;;11.57;5.07;;;-0.10;99.90;;;;;;5037255;28;20211;-79
2024/01/17 10:05:33;;;;;;;13.83;6.00;;;-0.20;99.90;;;;;;5036202;28;20224;-79
2024/01/17 10:08:00;;;;;;;13.47;6.87;;;-0.10;99.90;;;;;;5044616;28;20260;-79
2024/01/17 10:10:28;;;;;;;17.37;7.57;;;0.00;99.90;;;;;;5039048;28;20210;-78
2024/01/17 10:12:55;;;;;;;15.97;6.90;;;0.00;99.90;;;;;;5030030;28;20196;-79
2024/01/17 10:15:23;;;;;;;15.33;6.70;;;0.00;99.90;;;;;;5036759;28;20227;-79
2024/01/17 10:17:50;;;;;;;14.43;6.80;;;0.00;99.90;;;;;;5037452;28;20226;-80
2024/01/17 10:20:17;;;;;;;14.07;6.80;;;0.10;99.90;;;;;;5037496;28;20214;-80
2024/01/17 10:22:46;;;;;;;15.33;6.40;;;0.10;99.90;;;;;;5037437;28;20636;-80
2024/01/17 10:25:13;;;;;;;12.93;6.33;;;0.10;99.90;;;;;;5043150;28;20326;-78
2024/01/17 10:27:41;;;;;;;12.53;5.90;;;0.10;99.90;;;;;;5044487;28;20229;-78
2024/01/17 10:30:11;;;;;;;12.83;6.47;;;0.20;99.90;;;;;;5035172;28;20210;-79
2024/01/17 10:32:39;;;;;;;14.67;6.63;;;0.20;99.90;;;;;;5045590;28;20211;-80
2024/01/17 10:35:08;;;;;;;14.77;6.47;;;0.20;99.90;;;;;;5051048;28;20594;-79
2024/01/17 10:37:36;;;;;;;12.10;6.50;;;0.30;99.90;;;;;;5036230;28;20203;-79
2024/01/17 10:40:13;;;;;;;14.27;6.53;;;0.30;77.10;;;;;;5038967;28;20666;-78
2024/01/17 10:42:41;;;;;;;13.47;7.20;;;0.40;77.80;;;;;;5032594;28;20614;-79
2024/01/17 10:45:09;;;;;;;12.47;6.30;;;0.60;99.90;;;;;;5036544;28;20223;-79
2024/01/17 10:47:36;;;;;;;16.80;7.00;;;0.60;90.30;;;;;;5036293;28;20277;-79
2024/01/17 10:50:04;;;;;;;12.40;6.17;;;0.70;99.90;;;;;;5034698;28;20249;-80
2024/01/17 10:52:36;;;;;;;13.60;6.77;;;0.70;79.90;;;;;;5040274;28;20195;-80
2024/01/17 10:55:05;;;;;;;12.43;6.77;;;0.80;58.90;;;;;;5044453;28;20565;-79
2024/01/17 10:57:34;;;;;;;13.83;7.83;;;0.70;16.10;;;;;;5038540;28;20302;-79
2024/01/17 11:00:04;;;;;;;15.27;7.00;;;0.70;1.00;;;;;;5038302;28;20254;-79
2024/01/17 11:02:32;;;;;;;11.50;6.50;;;0.80;53.20;;;;;;5038979;28;20286;-79
2024/01/17 11:05:04;;;;;;;16.33;7.13;;;0.80;1.00;;;;;;5048584;28;20229;-80
2024/01/17 11:07:32;;;;;;;14.87;6.53;;;0.80;1.00;;;;;;5029512;28;20225;-80
2024/01/17 11:10:02;;;;;;;11.83;7.30;;;0.90;1.00;;;;;;5039551;28;20208;-80
2024/01/17 11:12:32;;;;;;;16.80;6.37;;;0.90;1.00;;;;;;5043585;28;20239;-79
2024/01/17 11:15:02;;;;;;;11.07;6.20;;;0.70;1.00;;;;;;5037168;28;20258;-80
2024/01/17 11:17:30;;;;;;;12.33;6.13;;;0.80;1.00;;;;;;5039323;28;20227;-80
2024/01/17 11:19:58;;;;;;;12.87;5.60;;;0.90;1.00;;;;;;5038064;28;20207;-80
2024/01/17 11:22:26;;;;;;;13.73;6.13;;;0.80;1.00;;;;;;5037064;28;20562;-79
2024/01/17 11:24:59;;;;;;;10.73;6.10;;;0.90;1.00;;;;;;5038859;28;20314;-80
2024/01/17 11:27:33;;;;;;;11.90;6.03;;;0.90;1.00;;;;;;5035595;28;20219;-81
2024/01/17 11:30:13;;;;;;;13.10;6.17;;;0.90;1.00;;;;;;5029308;28;20202;-80
2024/01/17 11:32:48;;;;;;;12.00;6.20;;;0.90;1.00;;;;;;5036209;28;20557;-80
2024/01/17 11:35:46;;;;;;;11.90;5.70;;;0.90;1.00;;;;;;5035289;28;20296;-80
2024/01/17 11:38:14;;;;;;;16.67;6.63;;;0.90;1.00;;;;;;5034876;28;20200;-80
2024/01/17 11:40:42;;;;;;;13.90;6.37;;;0.80;1.00;;;;;;5039939;28;20202;-80
2024/01/17 11:43:09;;;;;;;12.50;6.33;;;0.90;1.00;;;;;;5040577;28;20199;-80
2024/01/17 11:45:38;;;;;;;13.37;6.80;;;0.90;1.00;;;;;;5036047;28;20725;-81
2024/01/17 11:48:18;;;;;;;9.83;6.03;;;0.90;1.00;;;;;;5037711;28;20628;-80
2024/01/17 11:51:05;;;;;;;14.13;5.90;;;0.90;1.00;;;;;;5031264;28;20208;-80
2024/01/17 11:53:33;;;;;;;13.87;6.40;;;0.90;1.00;;;;;;5048602;28;20202;-80
2024/01/17 11:56:02;;;;;;;13.10;6.57;;;1.00;1.00;;;;;;5043103;28;20583;-80
2024/01/17 11:58:42;;;;;;;12.03;6.37;;;1.00;1.00;;;;;;5033056;28;20204;-80
2024/01/17 12:01:13;;;;;;;10.33;6.40;;;1.10;1.00;;;;;;5039581;28;20210;-80
2024/01/17 12:03:41;;;;;;;15.40;7.97;;;1.10;1.00;;;;;;5042151;28;20669;-80
2024/01/17 12:06:09;;;;;;;18.70;9.03;;;1.10;1.00;;;;;;5047206;28;20653;-80
2024/01/17 12:08:37;;;;;;;14.30;7.40;;;1.10;1.00;;;;;;5036580;28;20208;-80
2024/01/17 12:11:06;;;;;;;13.37;6.90;;;1.20;1.00;;;;;;5035371;28;20294;-79
2024/01/17 12:13:33;;;;;;;15.10;7.03;;;1.20;1.00;;;;;;5037252;28;20613;-79
2024/01/17 12:16:01;;;;;;;14.33;6.70;;;1.20;1.00;;;;;;5038604;28;20230;-80
2024/01/17 12:18:31;;;;;;;13.43;7.30;;;1.20;1.00;;;;;;5046611;28;20203;-80
2024/01/17 12:21:02;;;;;;;13.77;6.77;;;1.30;1.00;;;;;;5046849;28;20658;-81
2024/01/17 12:23:31;;;;;;;11.50;6.00;;;1.30;1.00;;;;;;5037007;28;20210;-80
2024/01/17 12:25:59;;;;;;;13.23;6.17;;;1.30;1.00;;;;;;5037500;28;20569;-79
2024/01/17 12:28:28;;;;;;;12.50;6.80;;;1.10;1.00;;;;;;5037928;28;20590;-79
2024/01/17 12:30:58;;;;;;;13.07;7.03;;;1.20;1.00;;;;;;5046426;28;20204;-79
2024/01/17 12:33:26;;;;;;;13.97;6.93;;;1.20;1.00;;;;;;5045878;28;20207;-80
2024/01/17 12:35:56;;;;;;;13.40;7.50;;;1.30;1.00;;;;;;5041556;28;20253;-80
2024/01/17 12:38:24;;;;;;;15.33;7.67;;;1.30;1.00;;;;;;5041058;28;20210;-80
2024/01/17 12:40:51;;;;;;;15.00;8.30;;;1.30;1.00;;;;;;5040981;28;20203;-79
2024/01/17 12:43:19;;;;;;;16.33;7.83;;;1.40;1.00;;;;;;5038834;28;20207;-80
2024/01/17 12:45:46;;;;;;;12.93;7.37;;;1.30;1.00;;;;;;5037565;28;20225;-80
2024/01/17 12:48:14;;;;;;;14.53;6.80;;;1.30;1.00;;;;;;5042063;28;20215;-79